createdAt,value
2023-11-12T00:00:40.696Z,5.70
2023-11-12T00:05:42.533Z,5.70
2023-11-12T00:10:45.344Z,5.60
2023-11-12T00:15:47.304Z,5.70
2023-11-12T00:20:49.159Z,5.70
2023-11-12T00:25:51.939Z,5.70
2023-11-12T00:30:53.889Z,5.70
2023-11-12T00:35:56.145Z,5.60
2023-11-12T00:40:58.143Z,5.60
2023-11-12T00:46:04.046Z,5.70
2023-11-12T00:51:06.170Z,5.70
2023-11-12T00:56:09.156Z,5.70
2023-11-12T01:01:11.222Z,5.70
2023-11-12T01:06:13.164Z,5.70
2023-11-12T01:11:16.900Z,5.70
2023-11-12T01:16:18.806Z,5.70
2023-11-12T01:21:20.723Z,5.80
2023-11-12T01:26:22.728Z,5.70
2023-11-12T01:31:24.928Z,5.70
2023-11-12T01:36:26.787Z,5.70
2023-11-12T01:41:28.628Z,5.80
2023-11-12T01:46:31.398Z,5.80
2023-11-12T01:51:34.720Z,5.70
2023-11-12T01:56:37.665Z,5.70
2023-11-12T02:01:39.749Z,5.60
2023-11-12T02:06:42.153Z,5.60
2023-11-12T02:11:44.825Z,5.60
2023-11-12T02:16:47.183Z,5.60
2023-11-12T02:21:49.012Z,5.50
2023-11-12T02:26:51.106Z,5.40
2023-11-12T02:31:52.957Z,5.30
2023-11-12T02:36:54.740Z,5.30
2023-11-12T02:41:57.116Z,5.40
2023-11-12T02:46:59.008Z,5.50
2023-11-12T02:52:01.208Z,5.50
2023-11-12T02:57:04.155Z,5.50
2023-11-12T03:02:06.146Z,5.50
2023-11-12T03:07:08.304Z,5.50
2023-11-12T03:12:11.309Z,5.50
2023-11-12T03:17:13.927Z,5.50
2023-11-12T03:22:16.901Z,5.40
2023-11-12T03:27:18.895Z,5.40
2023-11-12T03:32:23.956Z,5.40
2023-11-12T03:37:26.321Z,5.40
2023-11-12T03:42:28.248Z,5.40
2023-11-12T03:47:30.289Z,5.30
2023-11-12T03:52:32.136Z,5.30
2023-11-12T03:57:33.983Z,5.30
2023-11-12T04:02:35.927Z,5.40
2023-11-12T04:07:38.035Z,5.40
2023-11-12T04:12:39.904Z,5.40
2023-11-12T04:17:41.783Z,5.40
2023-11-12T04:22:43.619Z,5.40
2023-11-12T04:27:45.840Z,5.40
2023-11-12T04:32:47.706Z,5.40
2023-11-12T04:37:49.519Z,5.50
2023-11-12T04:42:52.026Z,5.40
2023-11-12T04:47:53.885Z,5.50
2023-11-12T04:52:55.716Z,5.50
2023-11-12T04:57:57.585Z,5.50
2023-11-12T05:02:59.692Z,5.50
2023-11-12T05:08:01.526Z,5.50
2023-11-12T05:13:03.385Z,5.50
2023-11-12T05:18:07.824Z,5.50
2023-11-12T05:23:10.076Z,5.50
2023-11-12T05:28:11.961Z,5.60
2023-11-12T05:33:13.924Z,5.60
2023-11-12T05:38:16.064Z,5.70
2023-11-12T05:43:17.857Z,5.70
2023-11-12T05:48:19.726Z,5.70
2023-11-12T05:53:21.565Z,5.70
2023-11-12T05:58:23.444Z,5.70
2023-11-12T06:03:25.488Z,5.80
2023-11-12T06:08:27.377Z,5.80
2023-11-12T06:13:29.179Z,5.80
2023-11-12T06:18:31.112Z,5.80
2023-11-12T06:23:32.941Z,5.80
2023-11-12T06:28:34.725Z,5.90
2023-11-12T06:33:36.568Z,5.90
2023-11-12T06:38:38.397Z,6.00
2023-11-12T06:43:40.436Z,6.00
2023-11-12T06:48:42.278Z,6.00
2023-11-12T06:53:44.153Z,6.00
2023-11-12T06:58:46.039Z,6.00
2023-11-12T07:03:48.515Z,6.10
2023-11-12T07:08:50.392Z,6.10
2023-11-12T07:13:52.177Z,6.10
2023-11-12T07:18:55.151Z,6.10
2023-11-12T07:23:57.815Z,6.20
2023-11-12T07:29:00.071Z,6.20
2023-11-12T07:34:01.880Z,6.20
2023-11-12T07:39:04.044Z,6.30
2023-11-12T07:44:09.149Z,6.30
2023-11-12T07:49:10.989Z,6.30
2023-11-12T07:54:12.945Z,6.30
2023-11-12T07:59:14.917Z,6.30
2023-11-12T08:04:16.865Z,6.40
2023-11-12T08:09:19.798Z,6.40
2023-11-12T08:14:21.706Z,6.50
2023-11-12T08:19:23.556Z,6.50
2023-11-12T08:24:25.458Z,6.60
2023-11-12T08:29:27.392Z,6.70
2023-11-12T08:34:29.192Z,6.70
2023-11-12T08:39:31.072Z,6.80
2023-11-12T08:44:32.986Z,6.90
2023-11-12T08:49:34.825Z,6.80
2023-11-12T08:54:36.665Z,6.90
2023-11-12T08:59:38.672Z,6.90
2023-11-12T09:04:40.594Z,7.00
2023-11-12T09:09:42.414Z,7.00
2023-11-12T09:14:44.274Z,6.90
2023-11-12T09:19:46.637Z,7.00
2023-11-12T09:25:00.497Z,7.00
2023-11-12T09:30:10.536Z,7.20
2023-11-12T09:35:12.476Z,7.30
2023-11-12T09:40:14.712Z,7.30
2023-11-12T09:45:19.514Z,7.50
2023-11-12T09:50:25.645Z,7.40
2023-11-12T09:55:27.486Z,7.40
2023-11-12T10:00:29.452Z,7.30
2023-11-12T10:05:33.356Z,7.40
2023-11-12T10:10:35.502Z,7.40
2023-11-12T10:15:37.619Z,7.60
2023-11-12T10:20:41.255Z,7.50
2023-11-12T10:25:45.417Z,7.70
2023-11-12T10:30:54.806Z,7.90
2023-11-12T10:35:57.249Z,7.90
2023-11-12T10:41:03.649Z,7.90
2023-11-12T10:46:08.476Z,7.80
2023-11-12T10:51:13.726Z,7.90
2023-11-12T10:56:17.440Z,7.80
2023-11-12T11:01:20.149Z,7.70
2023-11-12T11:06:23.986Z,7.60
2023-11-12T11:11:26.387Z,7.70
2023-11-12T11:17:00.977Z,7.90
2023-11-12T11:22:27.527Z,8.00
2023-11-12T11:27:29.571Z,7.70
2023-11-12T11:32:32.836Z,7.60
2023-11-12T11:38:14.088Z,7.60
2023-11-12T11:43:25.446Z,7.50
2023-11-12T11:48:27.281Z,7.50
2023-11-12T11:53:29.880Z,7.60
2023-11-12T11:58:45.264Z,7.40
2023-11-12T12:03:47.217Z,7.50
2023-11-12T12:08:53.493Z,7.40
2023-11-12T12:14:00.339Z,7.40
2023-11-12T12:19:03.197Z,7.50
2023-11-12T12:24:07.193Z,7.70
2023-11-12T12:29:21.579Z,7.70
2023-11-12T12:34:25.796Z,7.60
2023-11-12T12:39:28.418Z,7.50
2023-11-12T12:44:30.472Z,7.50
2023-11-12T12:49:40.820Z,7.60
2023-11-12T12:54:43.127Z,7.50
2023-11-12T12:59:44.961Z,7.50
2023-11-12T13:04:49.894Z,7.40
2023-11-12T13:09:52.980Z,7.40
2023-11-12T13:14:55.705Z,7.40
2023-11-12T13:19:58.650Z,7.40
2023-11-12T13:25:00.880Z,7.40
2023-11-12T13:30:03.009Z,7.40
2023-11-12T13:35:07.742Z,7.30
2023-11-12T13:40:16.000Z,7.30
2023-11-12T13:45:20.858Z,7.30
2023-11-12T13:50:29.384Z,7.20
2023-11-12T13:55:32.404Z,7.20
2023-11-12T14:00:34.249Z,7.20
2023-11-12T14:05:36.224Z,7.30
2023-11-12T14:10:39.258Z,7.20
2023-11-12T14:15:41.683Z,7.20
2023-11-12T14:20:44.442Z,7.10
2023-11-12T14:25:46.251Z,7.10
2023-11-12T14:30:50.285Z,7.10
2023-11-12T14:35:52.960Z,7.10
2023-11-12T14:40:57.028Z,7.10
2023-11-12T14:45:59.927Z,7.00
2023-11-12T14:51:06.074Z,7.00
2023-11-12T14:56:08.490Z,7.10
2023-11-12T15:01:10.491Z,7.10
2023-11-12T15:06:12.522Z,7.10
2023-11-12T15:11:14.348Z,7.10
2023-11-12T15:16:20.490Z,7.10
2023-11-12T15:21:24.125Z,7.10
2023-11-12T15:26:25.952Z,7.10
2023-11-12T15:31:27.851Z,7.10
2023-11-12T15:36:29.908Z,7.10
2023-11-12T15:41:31.765Z,7.10
2023-11-12T15:46:33.797Z,7.10
2023-11-12T15:51:35.761Z,7.10
2023-11-12T15:56:37.610Z,7.10
2023-11-12T16:01:39.494Z,7.10
2023-11-12T16:06:41.468Z,7.10
2023-11-12T16:11:43.276Z,7.10
2023-11-12T16:16:45.526Z,7.10
2023-11-12T16:21:49.521Z,7.10
2023-11-12T16:26:54.560Z,7.10
2023-11-12T16:32:08.587Z,7.20
2023-11-12T16:37:11.023Z,7.10
2023-11-12T16:42:16.125Z,7.20
2023-11-12T16:47:23.891Z,7.10
2023-11-12T16:52:26.569Z,7.10
2023-11-12T16:57:28.372Z,7.10
2023-11-12T17:02:30.441Z,7.10
2023-11-12T17:07:32.590Z,7.00
2023-11-12T17:12:34.585Z,7.00
2023-11-12T17:17:38.895Z,7.00
2023-11-12T17:22:42.462Z,7.00
2023-11-12T17:27:44.426Z,7.00
2023-11-12T17:32:46.255Z,7.10
2023-11-12T17:37:48.348Z,7.10
2023-11-12T17:42:50.251Z,7.10
2023-11-12T17:47:52.453Z,7.10
2023-11-12T17:52:54.340Z,7.10
2023-11-12T17:57:58.107Z,7.10
2023-11-12T18:03:00.081Z,7.10
2023-11-12T18:08:02.498Z,7.10
2023-11-12T18:13:04.947Z,7.00
2023-11-12T18:18:06.835Z,7.00
2023-11-12T18:23:08.694Z,7.00
2023-11-12T18:28:10.670Z,7.10
2023-11-12T18:33:14.959Z,7.10
2023-11-12T18:38:18.749Z,7.10
2023-11-12T18:43:22.816Z,7.10
2023-11-12T18:48:25.257Z,7.00
2023-11-12T18:53:27.214Z,6.90
2023-11-12T18:58:29.749Z,6.80
2023-11-12T19:03:31.644Z,6.70
2023-11-12T19:08:33.537Z,6.70
2023-11-12T19:13:36.233Z,6.70
2023-11-12T19:18:38.789Z,6.70
2023-11-12T19:23:40.721Z,6.60
2023-11-12T19:28:42.486Z,6.60
2023-11-12T19:33:47.810Z,6.50
2023-11-12T19:38:49.656Z,6.60
2023-11-12T19:43:52.255Z,6.50
2023-11-12T19:48:54.271Z,6.60
2023-11-12T19:53:56.232Z,6.60
2023-11-12T19:59:01.216Z,6.60
2023-11-12T20:04:05.591Z,6.70
2023-11-12T20:09:07.644Z,6.70
2023-11-12T20:14:09.470Z,6.70
2023-11-12T20:19:11.286Z,6.70
2023-11-12T20:24:13.241Z,6.70
2023-11-12T20:29:15.792Z,6.60
2023-11-12T20:34:17.622Z,6.60
2023-11-12T20:39:21.462Z,6.50
2023-11-12T20:44:23.397Z,6.60
2023-11-12T20:49:25.206Z,6.50
2023-11-12T20:54:27.038Z,6.50
2023-11-12T20:59:28.864Z,6.40
2023-11-12T21:04:30.738Z,6.40
2023-11-12T21:09:33.461Z,6.30
2023-11-12T21:14:35.364Z,6.40
2023-11-12T21:19:37.191Z,6.40
2023-11-12T21:24:43.595Z,6.50
2023-11-12T21:29:45.811Z,6.40
2023-11-12T21:34:47.815Z,6.40
2023-11-12T21:39:49.707Z,6.50
2023-11-12T21:44:51.558Z,6.40
2023-11-12T21:49:53.661Z,6.40
2023-11-12T21:54:56.331Z,6.50
2023-11-12T21:59:58.212Z,6.40
2023-11-12T22:05:02.145Z,6.50
2023-11-12T22:10:05.963Z,6.40
2023-11-12T22:15:10.103Z,6.40
2023-11-12T22:20:15.784Z,6.40
2023-11-12T22:25:18.487Z,6.40
2023-11-12T22:30:20.416Z,6.40
2023-11-12T22:35:22.500Z,6.40
2023-11-12T22:40:24.820Z,6.30
2023-11-12T22:45:26.704Z,6.30
2023-11-12T22:50:28.747Z,6.20
2023-11-12T22:55:30.563Z,6.10
2023-11-12T23:00:58.502Z,6.00
2023-11-12T23:06:00.851Z,6.00
2023-11-12T23:11:05.347Z,6.00
2023-11-12T23:16:07.695Z,6.00
2023-11-12T23:21:11.251Z,6.10
2023-11-12T23:26:13.098Z,6.10
2023-11-12T23:31:16.275Z,6.10
2023-11-12T23:36:18.490Z,6.00
2023-11-12T23:41:20.491Z,5.90
2023-11-12T23:46:23.687Z,5.80
2023-11-12T23:51:25.831Z,5.70
2023-11-12T23:56:28.793Z,5.70
